sensor_id;sensor_type;location;lat;lon;timestamp;P1;durP1;ratioP1;P2;durP2;ratioP2
38972;SDS011;25333;50.762;4.470;2024-03-23T00:53:36;4.22;;;1.25;;
38972;SDS011;25333;50.762;4.470;2024-03-23T00:56:02;4.85;;;1.38;;
38972;SDS011;25333;50.762;4.470;2024-03-23T00:58:29;5.93;;;1.05;;
38972;SDS011;25333;50.762;4.470;2024-03-23T01:00:54;6.10;;;1.35;;
38972;SDS011;25333;50.762;4.470;2024-03-23T01:03:20;3.47;;;1.90;;
38972;SDS011;25333;50.762;4.470;2024-03-23T01:05:46;2.95;;;1.40;;
38972;SDS011;25333;50.762;4.470;2024-03-23T01:08:11;4.55;;;1.50;;
38972;SDS011;25333;50.762;4.470;2024-03-23T01:10:37;4.10;;;1.10;;
38972;SDS011;25333;50.762;4.470;2024-03-23T01:13:03;5.10;;;1.38;;
38972;SDS011;25333;50.762;4.470;2024-03-23T01:15:29;4.93;;;1.65;;
38972;SDS011;25333;50.762;4.470;2024-03-23T01:17:57;3.58;;;1.20;;
38972;SDS011;25333;50.762;4.470;2024-03-23T01:20:26;4.95;;;1.63;;
38972;SDS011;25333;50.762;4.470;2024-03-23T01:22:54;5.70;;;2.10;;
38972;SDS011;25333;50.762;4.470;2024-03-23T01:25:20;8.30;;;2.60;;
38972;SDS011;25333;50.762;4.470;2024-03-23T01:27:45;5.82;;;1.83;;
38972;SDS011;25333;50.762;4.470;2024-03-23T01:30:11;3.67;;;1.80;;
38972;SDS011;25333;50.762;4.470;2024-03-23T01:32:38;8.02;;;1.77;;
38972;SDS011;25333;50.762;4.470;2024-03-23T01:35:04;4.50;;;1.60;;
38972;SDS011;25333;50.762;4.470;2024-03-23T01:37:30;4.85;;;1.85;;
38972;SDS011;25333;50.762;4.470;2024-03-23T01:39:56;4.90;;;2.00;;
38972;SDS011;25333;50.762;4.470;2024-03-23T01:42:21;6.70;;;2.42;;
38972;SDS011;25333;50.762;4.470;2024-03-23T01:44:47;5.65;;;2.40;;
38972;SDS011;25333;50.762;4.470;2024-03-23T01:47:15;5.17;;;1.43;;
38972;SDS011;25333;50.762;4.470;2024-03-23T01:49:41;8.30;;;1.90;;
38972;SDS011;25333;50.762;4.470;2024-03-23T01:52:07;7.00;;;2.45;;
38972;SDS011;25333;50.762;4.470;2024-03-23T01:54:33;4.97;;;2.05;;
38972;SDS011;25333;50.762;4.470;2024-03-23T01:56:59;7.88;;;2.35;;
38972;SDS011;25333;50.762;4.470;2024-03-23T01:59:25;8.37;;;2.13;;
38972;SDS011;25333;50.762;4.470;2024-03-23T02:01:51;11.13;;;2.80;;
38972;SDS011;25333;50.762;4.470;2024-03-23T02:04:16;9.83;;;3.13;;
38972;SDS011;25333;50.762;4.470;2024-03-23T02:06:42;11.60;;;4.15;;
38972;SDS011;25333;50.762;4.470;2024-03-23T02:09:08;5.75;;;2.78;;
38972;SDS011;25333;50.762;4.470;2024-03-23T02:11:34;6.07;;;2.72;;
38972;SDS011;25333;50.762;4.470;2024-03-23T02:14:00;10.43;;;4.50;;
38972;SDS011;25333;50.762;4.470;2024-03-23T02:16:25;5.70;;;2.97;;
38972;SDS011;25333;50.762;4.470;2024-03-23T02:18:51;8.65;;;3.50;;
38972;SDS011;25333;50.762;4.470;2024-03-23T02:21:17;8.70;;;3.37;;
38972;SDS011;25333;50.762;4.470;2024-03-23T02:23:42;8.77;;;3.47;;
38972;SDS011;25333;50.762;4.470;2024-03-23T02:26:08;7.27;;;4.10;;
38972;SDS011;25333;50.762;4.470;2024-03-23T02:28:34;9.02;;;4.53;;
38972;SDS011;25333;50.762;4.470;2024-03-23T02:30:59;11.47;;;5.93;;
38972;SDS011;25333;50.762;4.470;2024-03-23T02:33:26;8.60;;;5.68;;
38972;SDS011;25333;50.762;4.470;2024-03-23T02:35:55;11.23;;;6.22;;
38972;SDS011;25333;50.762;4.470;2024-03-23T02:38:22;10.02;;;5.97;;
38972;SDS011;25333;50.762;4.470;2024-03-23T02:40:48;9.47;;;5.43;;
38972;SDS011;25333;50.762;4.470;2024-03-23T02:43:13;11.70;;;5.68;;
38972;SDS011;25333;50.762;4.470;2024-03-23T02:45:39;10.27;;;6.25;;
38972;SDS011;25333;50.762;4.470;2024-03-23T02:48:09;12.63;;;6.40;;
38972;SDS011;25333;50.762;4.470;2024-03-23T02:50:35;9.18;;;5.78;;
38972;SDS011;25333;50.762;4.470;2024-03-23T02:53:01;10.15;;;6.43;;
38972;SDS011;25333;50.762;4.470;2024-03-23T02:55:27;11.00;;;5.70;;
38972;SDS011;25333;50.762;4.470;2024-03-23T02:57:52;11.32;;;6.35;;
38972;SDS011;25333;50.762;4.470;2024-03-23T03:00:18;13.20;;;7.20;;
38972;SDS011;25333;50.762;4.470;2024-03-23T03:02:44;10.82;;;6.50;;
38972;SDS011;25333;50.762;4.470;2024-03-23T03:05:12;13.68;;;6.75;;
38972;SDS011;25333;50.762;4.470;2024-03-23T03:07:38;11.88;;;6.72;;
38972;SDS011;25333;50.762;4.470;2024-03-23T03:10:06;17.60;;;6.93;;
38972;SDS011;25333;50.762;4.470;2024-03-23T03:12:33;12.35;;;7.00;;
38972;SDS011;25333;50.762;4.470;2024-03-23T03:14:59;12.27;;;6.25;;
38972;SDS011;25333;50.762;4.470;2024-03-23T03:17:25;14.85;;;7.38;;
38972;SDS011;25333;50.762;4.470;2024-03-23T03:19:51;13.17;;;7.40;;
38972;SDS011;25333;50.762;4.470;2024-03-23T03:22:20;13.55;;;7.60;;
38972;SDS011;25333;50.762;4.470;2024-03-23T03:24:49;11.87;;;7.30;;
38972;SDS011;25333;50.762;4.470;2024-03-23T03:27:15;11.52;;;7.90;;
38972;SDS011;25333;50.762;4.470;2024-03-23T03:29:43;13.50;;;7.83;;
38972;SDS011;25333;50.762;4.470;2024-03-23T03:32:09;13.93;;;7.30;;
38972;SDS011;25333;50.762;4.470;2024-03-23T03:34:35;15.40;;;7.88;;
38972;SDS011;25333;50.762;4.470;2024-03-23T03:37:00;15.03;;;8.23;;
38972;SDS011;25333;50.762;4.470;2024-03-23T03:39:26;18.20;;;8.57;;
38972;SDS011;25333;50.762;4.470;2024-03-23T03:41:52;12.67;;;7.30;;
38972;SDS011;25333;50.762;4.470;2024-03-23T03:44:17;16.85;;;8.02;;
38972;SDS011;25333;50.762;4.470;2024-03-23T03:46:43;17.65;;;8.25;;
38972;SDS011;25333;50.762;4.470;2024-03-23T03:49:09;15.83;;;7.50;;
38972;SDS011;25333;50.762;4.470;2024-03-23T03:51:35;13.45;;;8.40;;
38972;SDS011;25333;50.762;4.470;2024-03-23T03:54:01;13.18;;;7.18;;
38972;SDS011;25333;50.762;4.470;2024-03-23T03:56:27;14.45;;;8.02;;
38972;SDS011;25333;50.762;4.470;2024-03-23T03:58:53;12.50;;;8.45;;
38972;SDS011;25333;50.762;4.470;2024-03-23T04:01:19;9.82;;;6.93;;
38972;SDS011;25333;50.762;4.470;2024-03-23T04:03:45;13.00;;;8.57;;
38972;SDS011;25333;50.762;4.470;2024-03-23T04:06:11;12.27;;;8.02;;
38972;SDS011;25333;50.762;4.470;2024-03-23T04:08:37;13.00;;;7.75;;
38972;SDS011;25333;50.762;4.470;2024-03-23T04:11:03;13.93;;;8.18;;
38972;SDS011;25333;50.762;4.470;2024-03-23T04:13:29;14.13;;;8.20;;
38972;SDS011;25333;50.762;4.470;2024-03-23T04:15:54;15.95;;;8.30;;
38972;SDS011;25333;50.762;4.470;2024-03-23T04:18:21;16.05;;;9.05;;
38972;SDS011;25333;50.762;4.470;2024-03-23T04:20:48;14.67;;;8.67;;
38972;SDS011;25333;50.762;4.470;2024-03-23T04:23:14;13.38;;;7.95;;
38972;SDS011;25333;50.762;4.470;2024-03-23T04:25:40;12.75;;;6.82;;
38972;SDS011;25333;50.762;4.470;2024-03-23T04:28:05;15.63;;;8.33;;
38972;SDS011;25333;50.762;4.470;2024-03-23T04:30:31;12.65;;;6.88;;
38972;SDS011;25333;50.762;4.470;2024-03-23T04:32:57;11.55;;;8.23;;
38972;SDS011;25333;50.762;4.470;2024-03-23T04:35:23;13.95;;;7.93;;
38972;SDS011;25333;50.762;4.470;2024-03-23T04:37:55;14.13;;;8.27;;
38972;SDS011;25333;50.762;4.470;2024-03-23T04:40:23;10.75;;;7.13;;
38972;SDS011;25333;50.762;4.470;2024-03-23T04:42:50;18.30;;;7.80;;
38972;SDS011;25333;50.762;4.470;2024-03-23T04:45:15;13.68;;;7.45;;
38972;SDS011;25333;50.762;4.470;2024-03-23T04:47:41;12.30;;;6.90;;
38972;SDS011;25333;50.762;4.470;2024-03-23T04:50:07;11.57;;;7.22;;
38972;SDS011;25333;50.762;4.470;2024-03-23T04:52:33;10.75;;;6.65;;
38972;SDS011;25333;50.762;4.470;2024-03-23T04:54:59;13.45;;;7.68;;
38972;SDS011;25333;50.762;4.470;2024-03-23T04:57:24;9.70;;;6.70;;
38972;SDS011;25333;50.762;4.470;2024-03-23T04:59:50;12.52;;;7.25;;
38972;SDS011;25333;50.762;4.470;2024-03-23T05:02:16;11.23;;;6.30;;
38972;SDS011;25333;50.762;4.470;2024-03-23T05:04:41;13.73;;;5.67;;
38972;SDS011;25333;50.762;4.470;2024-03-23T05:07:07;9.45;;;5.15;;
38972;SDS011;25333;50.762;4.470;2024-03-23T05:09:33;12.52;;;5.72;;
38972;SDS011;25333;50.762;4.470;2024-03-23T05:11:59;10.60;;;5.38;;
38972;SDS011;25333;50.762;4.470;2024-03-23T05:14:28;9.85;;;4.68;;
38972;SDS011;25333;50.762;4.470;2024-03-23T05:16:54;10.07;;;4.03;;
38972;SDS011;25333;50.762;4.470;2024-03-23T05:19:20;11.30;;;3.97;;
38972;SDS011;25333;50.762;4.470;2024-03-23T05:21:50;11.45;;;3.75;;
38972;SDS011;25333;50.762;4.470;2024-03-23T05:24:15;9.20;;;4.93;;
38972;SDS011;25333;50.762;4.470;2024-03-23T05:26:41;11.67;;;4.00;;
38972;SDS011;25333;50.762;4.470;2024-03-23T05:29:07;6.75;;;4.00;;
38972;SDS011;25333;50.762;4.470;2024-03-23T05:31:36;7.07;;;5.28;;
38972;SDS011;25333;50.762;4.470;2024-03-23T05:34:02;8.10;;;4.82;;
38972;SDS011;25333;50.762;4.470;2024-03-23T05:36:29;10.30;;;3.80;;
38972;SDS011;25333;50.762;4.470;2024-03-23T05:38:55;9.35;;;4.57;;
38972;SDS011;25333;50.762;4.470;2024-03-23T05:41:21;11.90;;;4.78;;
38972;SDS011;25333;50.762;4.470;2024-03-23T05:43:49;13.60;;;4.72;;
38972;SDS011;25333;50.762;4.470;2024-03-23T05:46:14;9.67;;;5.03;;
38972;SDS011;25333;50.762;4.470;2024-03-23T05:48:40;9.70;;;4.65;;
38972;SDS011;25333;50.762;4.470;2024-03-23T05:51:08;12.70;;;5.00;;
38972;SDS011;25333;50.762;4.470;2024-03-23T05:53:34;8.48;;;4.22;;
38972;SDS011;25333;50.762;4.470;2024-03-23T05:56:02;7.45;;;3.85;;
38972;SDS011;25333;50.762;4.470;2024-03-23T05:58:34;8.73;;;3.78;;
38972;SDS011;25333;50.762;4.470;2024-03-23T06:01:00;7.85;;;3.58;;
38972;SDS011;25333;50.762;4.470;2024-03-23T06:03:26;6.47;;;3.08;;
38972;SDS011;25333;50.762;4.470;2024-03-23T06:05:53;8.70;;;3.50;;
38972;SDS011;25333;50.762;4.470;2024-03-23T06:08:19;8.32;;;3.58;;
38972;SDS011;25333;50.762;4.470;2024-03-23T06:10:45;9.00;;;2.97;;
38972;SDS011;25333;50.762;4.470;2024-03-23T06:13:14;7.88;;;2.95;;
38972;SDS011;25333;50.762;4.470;2024-03-23T06:15:45;10.13;;;2.40;;
38972;SDS011;25333;50.762;4.470;2024-03-23T06:18:11;7.30;;;3.08;;
38972;SDS011;25333;50.762;4.470;2024-03-23T06:20:37;7.63;;;2.90;;
38972;SDS011;25333;50.762;4.470;2024-03-23T06:23:03;5.45;;;1.92;;
38972;SDS011;25333;50.762;4.470;2024-03-23T06:25:29;5.97;;;2.03;;
38972;SDS011;25333;50.762;4.470;2024-03-23T06:27:55;8.05;;;2.42;;
38972;SDS011;25333;50.762;4.470;2024-03-23T06:30:21;9.18;;;2.50;;
38972;SDS011;25333;50.762;4.470;2024-03-23T06:32:47;5.70;;;1.67;;
38972;SDS011;25333;50.762;4.470;2024-03-23T06:35:12;6.07;;;1.90;;
38972;SDS011;25333;50.762;4.470;2024-03-23T06:37:38;6.85;;;1.95;;
38972;SDS011;25333;50.762;4.470;2024-03-23T06:40:06;7.97;;;2.17;;
38972;SDS011;25333;50.762;4.470;2024-03-23T06:42:34;8.57;;;1.88;;
38972;SDS011;25333;50.762;4.470;2024-03-23T06:45:03;9.65;;;2.63;;
38972;SDS011;25333;50.762;4.470;2024-03-23T06:47:32;7.15;;;2.65;;
38972;SDS011;25333;50.762;4.470;2024-03-23T06:50:03;5.15;;;1.92;;
38972;SDS011;25333;50.762;4.470;2024-03-23T06:52:34;15.38;;;3.33;;
38972;SDS011;25333;50.762;4.470;2024-03-23T06:55:00;7.55;;;2.30;;
38972;SDS011;25333;50.762;4.470;2024-03-23T06:57:26;5.40;;;1.80;;
38972;SDS011;25333;50.762;4.470;2024-03-23T06:59:59;8.57;;;2.40;;
38972;SDS011;25333;50.762;4.470;2024-03-23T07:02:27;6.00;;;2.22;;
38972;SDS011;25333;50.762;4.470;2024-03-23T07:04:53;6.78;;;1.85;;
38972;SDS011;25333;50.762;4.470;2024-03-23T07:07:19;12.07;;;3.10;;
38972;SDS011;25333;50.762;4.470;2024-03-23T07:09:44;7.45;;;2.08;;
38972;SDS011;25333;50.762;4.470;2024-03-23T07:12:10;7.15;;;2.03;;
38972;SDS011;25333;50.762;4.470;2024-03-23T07:14:36;8.40;;;2.67;;
38972;SDS011;25333;50.762;4.470;2024-03-23T07:17:01;7.35;;;2.03;;
38972;SDS011;25333;50.762;4.470;2024-03-23T07:19:27;10.60;;;2.30;;
38972;SDS011;25333;50.762;4.470;2024-03-23T07:21:53;5.65;;;2.05;;
38972;SDS011;25333;50.762;4.470;2024-03-23T07:24:19;7.07;;;1.97;;
38972;SDS011;25333;50.762;4.470;2024-03-23T07:26:44;9.38;;;2.92;;
38972;SDS011;25333;50.762;4.470;2024-03-23T07:29:10;9.23;;;2.83;;
38972;SDS011;25333;50.762;4.470;2024-03-23T07:31:36;8.10;;;1.65;;
38972;SDS011;25333;50.762;4.470;2024-03-23T07:34:04;9.27;;;2.30;;
38972;SDS011;25333;50.762;4.470;2024-03-23T07:36:30;9.20;;;2.40;;
38972;SDS011;25333;50.762;4.470;2024-03-23T07:38:56;7.47;;;1.70;;
38972;SDS011;25333;50.762;4.470;2024-03-23T07:41:22;5.22;;;1.70;;
38972;SDS011;25333;50.762;4.470;2024-03-23T07:43:48;9.60;;;2.17;;
38972;SDS011;25333;50.762;4.470;2024-03-23T07:46:15;11.48;;;2.63;;
38972;SDS011;25333;50.762;4.470;2024-03-23T07:48:41;7.18;;;2.28;;
38972;SDS011;25333;50.762;4.470;2024-03-23T07:51:10;10.63;;;2.73;;
38972;SDS011;25333;50.762;4.470;2024-03-23T07:53:44;11.20;;;2.35;;
38972;SDS011;25333;50.762;4.470;2024-03-23T07:56:14;7.22;;;2.00;;
38972;SDS011;25333;50.762;4.470;2024-03-23T07:58:40;10.68;;;2.00;;
38972;SDS011;25333;50.762;4.470;2024-03-23T08:01:16;8.00;;;2.70;;
38972;SDS011;25333;50.762;4.470;2024-03-23T08:03:47;9.30;;;2.63;;
38972;SDS011;25333;50.762;4.470;2024-03-23T08:08:42;8.15;;;3.03;;
38972;SDS011;25333;50.762;4.470;2024-03-23T08:11:08;7.65;;;2.40;;
38972;SDS011;25333;50.762;4.470;2024-03-23T08:13:34;5.15;;;1.63;;
38972;SDS011;25333;50.762;4.470;2024-03-23T08:16:01;11.33;;;2.40;;
38972;SDS011;25333;50.762;4.470;2024-03-23T08:18:44;7.22;;;2.17;;
38972;SDS011;25333;50.762;4.470;2024-03-23T08:21:28;8.07;;;1.98;;
38972;SDS011;25333;50.762;4.470;2024-03-23T08:23:54;5.72;;;1.65;;
38972;SDS011;25333;50.762;4.470;2024-03-23T08:26:20;8.67;;;2.13;;
38972;SDS011;25333;50.762;4.470;2024-03-23T08:28:45;9.07;;;2.47;;
38972;SDS011;25333;50.762;4.470;2024-03-23T08:31:13;6.32;;;2.00;;
38972;SDS011;25333;50.762;4.470;2024-03-23T08:33:41;10.70;;;1.98;;
38972;SDS011;25333;50.762;4.470;2024-03-23T08:36:08;9.93;;;3.25;;
38972;SDS011;25333;50.762;4.470;2024-03-23T08:38:37;7.22;;;2.05;;
38972;SDS011;25333;50.762;4.470;2024-03-23T08:43:30;5.93;;;2.40;;
38972;SDS011;25333;50.762;4.470;2024-03-23T09:03:57;5.97;;;2.03;;
38972;SDS011;25333;50.762;4.470;2024-03-23T09:06:25;5.32;;;2.38;;
38972;SDS011;25333;50.762;4.470;2024-03-23T09:08:54;5.72;;;2.92;;
38972;SDS011;25333;50.762;4.470;2024-03-23T09:11:31;6.10;;;2.43;;
38972;SDS011;25333;50.762;4.470;2024-03-23T09:14:27;4.88;;;1.17;;
38972;SDS011;25333;50.762;4.470;2024-03-23T09:20:21;4.93;;;1.73;;
38972;SDS011;25333;50.762;4.470;2024-03-23T09:22:49;5.30;;;1.93;;
38972;SDS011;25333;50.762;4.470;2024-03-23T09:25:20;8.70;;;2.50;;
38972;SDS011;25333;50.762;4.470;2024-03-23T09:28:05;4.18;;;1.80;;
38972;SDS011;25333;50.762;4.470;2024-03-23T09:30:54;6.47;;;2.60;;
38972;SDS011;25333;50.762;4.470;2024-03-23T09:36:41;5.83;;;2.37;;
38972;SDS011;25333;50.762;4.470;2024-03-23T09:42:36;7.95;;;2.05;;
38972;SDS011;25333;50.762;4.470;2024-03-23T09:45:49;4.82;;;1.75;;
38972;SDS011;25333;50.762;4.470;2024-03-23T14:14:25;2.20;;;0.30;;
38972;SDS011;25333;50.762;4.470;2024-03-23T14:30:54;2.85;;;0.30;;
38972;SDS011;25333;50.762;4.470;2024-03-23T14:48:15;1.80;;;0.30;;
38972;SDS011;25333;50.762;4.470;2024-03-23T14:50:40;5.97;;;1.20;;
38972;SDS011;25333;50.762;4.470;2024-03-23T14:53:06;4.18;;;0.60;;
38972;SDS011;25333;50.762;4.470;2024-03-23T14:55:34;7.28;;;0.57;;
38972;SDS011;25333;50.762;4.470;2024-03-23T14:57:59;3.03;;;0.63;;
38972;SDS011;25333;50.762;4.470;2024-03-23T15:00:26;4.43;;;0.60;;
38972;SDS011;25333;50.762;4.470;2024-03-23T15:02:52;4.93;;;0.50;;
38972;SDS011;25333;50.762;4.470;2024-03-23T15:05:17;5.03;;;1.42;;
38972;SDS011;25333;50.762;4.470;2024-03-23T15:07:43;6.03;;;1.10;;
38972;SDS011;25333;50.762;4.470;2024-03-23T15:10:09;4.47;;;0.50;;
38972;SDS011;25333;50.762;4.470;2024-03-23T15:12:35;1.42;;;0.60;;
38972;SDS011;25333;50.762;4.470;2024-03-23T15:15:01;5.03;;;0.60;;
38972;SDS011;25333;50.762;4.470;2024-03-23T15:17:26;3.67;;;0.53;;
38972;SDS011;25333;50.762;4.470;2024-03-23T15:19:52;1.30;;;0.43;;
38972;SDS011;25333;50.762;4.470;2024-03-23T15:22:18;3.28;;;0.47;;
38972;SDS011;25333;50.762;4.470;2024-03-23T15:24:45;4.95;;;0.98;;
38972;SDS011;25333;50.762;4.470;2024-03-23T15:27:11;6.22;;;1.00;;
38972;SDS011;25333;50.762;4.470;2024-03-23T15:29:36;3.28;;;0.60;;
38972;SDS011;25333;50.762;4.470;2024-03-23T15:32:03;3.38;;;0.70;;
38972;SDS011;25333;50.762;4.470;2024-03-23T15:34:29;3.88;;;0.82;;
38972;SDS011;25333;50.762;4.470;2024-03-23T15:36:55;2.50;;;0.80;;
38972;SDS011;25333;50.762;4.470;2024-03-23T15:39:20;5.10;;;0.43;;
38972;SDS011;25333;50.762;4.470;2024-03-23T15:41:47;2.55;;;0.80;;
38972;SDS011;25333;50.762;4.470;2024-03-23T15:44:13;3.17;;;0.68;;
38972;SDS011;25333;50.762;4.470;2024-03-23T15:46:39;2.00;;;0.70;;
38972;SDS011;25333;50.762;4.470;2024-03-23T15:49:05;5.72;;;0.85;;
38972;SDS011;25333;50.762;4.470;2024-03-23T15:51:31;3.80;;;0.98;;
38972;SDS011;25333;50.762;4.470;2024-03-23T15:54:02;2.88;;;0.65;;
38972;SDS011;25333;50.762;4.470;2024-03-23T15:56:31;5.65;;;0.85;;
38972;SDS011;25333;50.762;4.470;2024-03-23T15:58:57;2.03;;;0.40;;
38972;SDS011;25333;50.762;4.470;2024-03-23T16:01:33;3.38;;;0.43;;
38972;SDS011;25333;50.762;4.470;2024-03-23T16:04:03;3.97;;;0.65;;
38972;SDS011;25333;50.762;4.470;2024-03-23T16:06:29;6.13;;;0.70;;
38972;SDS011;25333;50.762;4.470;2024-03-23T16:08:54;1.85;;;0.85;;
38972;SDS011;25333;50.762;4.470;2024-03-23T16:11:20;4.03;;;0.87;;
38972;SDS011;25333;50.762;4.470;2024-03-23T16:13:46;2.90;;;0.68;;
38972;SDS011;25333;50.762;4.470;2024-03-23T16:16:12;4.38;;;0.80;;
38972;SDS011;25333;50.762;4.470;2024-03-23T16:21:31;2.35;;;0.50;;
38972;SDS011;25333;50.762;4.470;2024-03-23T16:24:20;4.57;;;0.80;;
38972;SDS011;25333;50.762;4.470;2024-03-23T16:26:49;5.82;;;1.73;;
38972;SDS011;25333;50.762;4.470;2024-03-23T16:29:44;3.17;;;0.87;;
38972;SDS011;25333;50.762;4.470;2024-03-23T16:32:48;2.50;;;0.63;;
38972;SDS011;25333;50.762;4.470;2024-03-23T16:39:00;3.20;;;0.47;;
38972;SDS011;25333;50.762;4.470;2024-03-23T16:41:44;2.55;;;0.68;;
38972;SDS011;25333;50.762;4.470;2024-03-23T16:47:12;5.20;;;0.30;;
38972;SDS011;25333;50.762;4.470;2024-03-23T16:49:44;4.45;;;0.85;;
38972;SDS011;25333;50.762;4.470;2024-03-23T16:55:00;2.47;;;0.43;;
38972;SDS011;25333;50.762;4.470;2024-03-23T16:58:42;2.92;;;0.50;;
38972;SDS011;25333;50.762;4.470;2024-03-23T17:01:44;2.78;;;0.70;;
38972;SDS011;25333;50.762;4.470;2024-03-23T17:04:44;3.25;;;0.60;;
38972;SDS011;25333;50.762;4.470;2024-03-23T17:07:37;2.92;;;1.20;;
38972;SDS011;25333;50.762;4.470;2024-03-23T17:10:16;2.75;;;0.50;;
38972;SDS011;25333;50.762;4.470;2024-03-23T17:12:48;1.40;;;0.63;;
38972;SDS011;25333;50.762;4.470;2024-03-23T17:18:50;3.22;;;0.60;;
38972;SDS011;25333;50.762;4.470;2024-03-23T17:21:29;4.78;;;0.45;;
38972;SDS011;25333;50.762;4.470;2024-03-23T17:27:50;4.53;;;0.68;;
38972;SDS011;25333;50.762;4.470;2024-03-23T17:30:26;2.35;;;0.40;;
38972;SDS011;25333;50.762;4.470;2024-03-23T17:33:08;3.53;;;0.80;;
38972;SDS011;25333;50.762;4.470;2024-03-23T17:38:37;1.90;;;0.40;;
38972;SDS011;25333;50.762;4.470;2024-03-23T17:41:28;4.43;;;0.45;;
38972;SDS011;25333;50.762;4.470;2024-03-23T17:43:54;5.20;;;1.27;;
38972;SDS011;25333;50.762;4.470;2024-03-23T17:46:19;3.92;;;0.50;;
38972;SDS011;25333;50.762;4.470;2024-03-23T17:48:45;3.80;;;1.23;;
38972;SDS011;25333;50.762;4.470;2024-03-23T17:51:11;4.93;;;1.27;;
38972;SDS011;25333;50.762;4.470;2024-03-23T17:53:41;4.60;;;0.68;;
38972;SDS011;25333;50.762;4.470;2024-03-23T17:56:09;5.88;;;1.40;;
38972;SDS011;25333;50.762;4.470;2024-03-23T17:58:35;4.77;;;0.93;;
38972;SDS011;25333;50.762;4.470;2024-03-23T18:01:05;6.85;;;1.00;;
38972;SDS011;25333;50.762;4.470;2024-03-23T18:03:31;3.33;;;1.15;;
38972;SDS011;25333;50.762;4.470;2024-03-23T18:05:58;7.72;;;1.10;;
38972;SDS011;25333;50.762;4.470;2024-03-23T18:08:41;8.55;;;1.00;;
38972;SDS011;25333;50.762;4.470;2024-03-23T18:11:09;3.83;;;0.60;;
38972;SDS011;25333;50.762;4.470;2024-03-23T18:13:36;3.47;;;1.03;;
38972;SDS011;25333;50.762;4.470;2024-03-23T18:16:20;2.63;;;0.60;;
38972;SDS011;25333;50.762;4.470;2024-03-23T18:18:49;4.65;;;1.52;;
38972;SDS011;25333;50.762;4.470;2024-03-23T18:21:14;3.03;;;1.10;;
38972;SDS011;25333;50.762;4.470;2024-03-23T18:23:40;5.15;;;1.63;;
38972;SDS011;25333;50.762;4.470;2024-03-23T18:26:06;3.72;;;1.00;;
38972;SDS011;25333;50.762;4.470;2024-03-23T18:28:33;2.95;;;0.75;;
38972;SDS011;25333;50.762;4.470;2024-03-23T18:30:59;5.37;;;1.00;;
38972;SDS011;25333;50.762;4.470;2024-03-23T18:33:25;3.22;;;0.73;;
38972;SDS011;25333;50.762;4.470;2024-03-23T18:35:54;4.25;;;1.45;;
38972;SDS011;25333;50.762;4.470;2024-03-23T18:38:20;3.95;;;0.70;;
38972;SDS011;25333;50.762;4.470;2024-03-23T18:40:46;2.00;;;0.70;;
38972;SDS011;25333;50.762;4.470;2024-03-23T18:43:12;3.00;;;0.70;;
38972;SDS011;25333;50.762;4.470;2024-03-23T18:45:45;1.65;;;0.73;;
38972;SDS011;25333;50.762;4.470;2024-03-23T18:48:15;3.53;;;1.08;;
38972;SDS011;25333;50.762;4.470;2024-03-23T18:50:41;3.72;;;1.33;;
38972;SDS011;25333;50.762;4.470;2024-03-23T18:53:07;2.80;;;0.70;;
38972;SDS011;25333;50.762;4.470;2024-03-23T18:55:39;3.27;;;1.30;;
38972;SDS011;25333;50.762;4.470;2024-03-23T18:58:18;3.42;;;1.10;;
38972;SDS011;25333;50.762;4.470;2024-03-23T19:01:00;4.00;;;1.50;;
38972;SDS011;25333;50.762;4.470;2024-03-23T19:03:46;6.05;;;1.95;;
38972;SDS011;25333;50.762;4.470;2024-03-23T19:06:12;7.90;;;1.30;;
38972;SDS011;25333;50.762;4.470;2024-03-23T19:08:38;3.78;;;0.98;;
38972;SDS011;25333;50.762;4.470;2024-03-23T19:11:04;3.03;;;1.17;;
38972;SDS011;25333;50.762;4.470;2024-03-23T19:13:36;4.78;;;1.00;;
38972;SDS011;25333;50.762;4.470;2024-03-23T19:16:05;5.70;;;1.23;;
38972;SDS011;25333;50.762;4.470;2024-03-23T19:18:35;2.70;;;0.70;;
38972;SDS011;25333;50.762;4.470;2024-03-23T19:21:01;2.78;;;0.55;;
38972;SDS011;25333;50.762;4.470;2024-03-23T19:23:58;3.20;;;0.98;;
38972;SDS011;25333;50.762;4.470;2024-03-23T19:26:26;1.42;;;0.50;;
38972;SDS011;25333;50.762;4.470;2024-03-23T19:28:58;3.30;;;1.20;;
38972;SDS011;25333;50.762;4.470;2024-03-23T19:31:28;2.70;;;0.75;;
38972;SDS011;25333;50.762;4.470;2024-03-23T19:33:53;3.93;;;1.50;;
38972;SDS011;25333;50.762;4.470;2024-03-23T19:36:27;3.25;;;1.55;;
38972;SDS011;25333;50.762;4.470;2024-03-23T19:38:55;3.27;;;1.13;;
38972;SDS011;25333;50.762;4.470;2024-03-23T19:41:41;3.45;;;1.17;;
38972;SDS011;25333;50.762;4.470;2024-03-23T19:44:07;3.53;;;1.13;;
38972;SDS011;25333;50.762;4.470;2024-03-23T19:46:33;2.42;;;0.93;;
38972;SDS011;25333;50.762;4.470;2024-03-23T19:48:59;1.63;;;0.70;;
38972;SDS011;25333;50.762;4.470;2024-03-23T19:51:35;9.15;;;1.30;;
38972;SDS011;25333;50.762;4.470;2024-03-23T19:54:12;5.97;;;1.48;;
38972;SDS011;25333;50.762;4.470;2024-03-23T19:56:39;3.20;;;0.93;;
38972;SDS011;25333;50.762;4.470;2024-03-23T19:59:26;3.80;;;0.70;;
38972;SDS011;25333;50.762;4.470;2024-03-23T20:01:52;2.55;;;0.75;;
38972;SDS011;25333;50.762;4.470;2024-03-23T20:04:29;3.97;;;0.80;;
38972;SDS011;25333;50.762;4.470;2024-03-23T20:07:32;3.05;;;0.68;;
38972;SDS011;25333;50.762;4.470;2024-03-23T20:09:59;4.03;;;1.00;;
38972;SDS011;25333;50.762;4.470;2024-03-23T20:14:56;2.50;;;0.63;;
38972;SDS011;25333;50.762;4.470;2024-03-23T20:17:42;2.58;;;1.05;;
38972;SDS011;25333;50.762;4.470;2024-03-23T20:20:41;2.10;;;0.80;;
38972;SDS011;25333;50.762;4.470;2024-03-23T20:25:52;1.73;;;0.57;;
38972;SDS011;25333;50.762;4.470;2024-03-23T20:28:27;2.35;;;0.98;;
38972;SDS011;25333;50.762;4.470;2024-03-23T20:31:08;4.32;;;1.13;;
38972;SDS011;25333;50.762;4.470;2024-03-23T20:33:35;1.40;;;0.60;;
38972;SDS011;25333;50.762;4.470;2024-03-23T20:36:08;1.98;;;0.30;;
38972;SDS011;25333;50.762;4.470;2024-03-23T20:38:33;4.80;;;1.02;;
38972;SDS011;25333;50.762;4.470;2024-03-23T20:41:05;2.05;;;0.77;;
38972;SDS011;25333;50.762;4.470;2024-03-23T20:43:55;2.97;;;0.70;;
38972;SDS011;25333;50.762;4.470;2024-03-23T20:46:22;2.53;;;1.15;;
38972;SDS011;25333;50.762;4.470;2024-03-23T20:48:55;2.35;;;0.70;;
38972;SDS011;25333;50.762;4.470;2024-03-23T20:51:21;3.60;;;0.90;;
38972;SDS011;25333;50.762;4.470;2024-03-23T20:53:51;2.00;;;0.40;;
38972;SDS011;25333;50.762;4.470;2024-03-23T20:56:17;2.30;;;0.63;;
38972;SDS011;25333;50.762;4.470;2024-03-23T20:58:43;3.25;;;0.95;;
38972;SDS011;25333;50.762;4.470;2024-03-23T21:01:08;2.90;;;0.57;;
38972;SDS011;25333;50.762;4.470;2024-03-23T21:03:36;3.28;;;0.90;;
38972;SDS011;25333;50.762;4.470;2024-03-23T21:06:04;2.90;;;1.05;;
38972;SDS011;25333;50.762;4.470;2024-03-23T21:08:31;3.20;;;0.93;;
38972;SDS011;25333;50.762;4.470;2024-03-23T21:11:13;6.35;;;0.73;;
38972;SDS011;25333;50.762;4.470;2024-03-23T21:13:39;2.67;;;1.10;;
38972;SDS011;25333;50.762;4.470;2024-03-23T21:16:06;3.72;;;0.70;;
38972;SDS011;25333;50.762;4.470;2024-03-23T21:18:32;3.67;;;1.38;;
38972;SDS011;25333;50.762;4.470;2024-03-23T21:21:31;2.42;;;0.65;;
38972;SDS011;25333;50.762;4.470;2024-03-23T21:24:35;4.28;;;0.73;;
38972;SDS011;25333;50.762;4.470;2024-03-23T21:30:06;1.97;;;0.90;;
38972;SDS011;25333;50.762;4.470;2024-03-23T21:32:37;5.03;;;0.60;;
38972;SDS011;25333;50.762;4.470;2024-03-23T21:35:05;2.30;;;1.07;;
38972;SDS011;25333;50.762;4.470;2024-03-23T21:37:31;2.05;;;0.60;;
38972;SDS011;25333;50.762;4.470;2024-03-23T21:39:57;2.65;;;0.90;;
38972;SDS011;25333;50.762;4.470;2024-03-23T21:42:23;3.60;;;0.93;;
38972;SDS011;25333;50.762;4.470;2024-03-23T21:44:50;4.00;;;1.20;;
38972;SDS011;25333;50.762;4.470;2024-03-23T21:47:16;4.07;;;0.80;;
38972;SDS011;25333;50.762;4.470;2024-03-23T21:49:41;3.03;;;0.98;;